createdAt,value
2023-05-18T00:01:40.027Z,50.875469
2023-05-18T00:02:40.073Z,50.875362
2023-05-18T00:03:40.113Z,50.875374
2023-05-18T00:04:40.078Z,50.875271
2023-05-18T00:05:39.980Z,50.875019
2023-05-18T00:06:39.970Z,50.875397
2023-05-18T00:07:39.960Z,50.875324
2023-05-18T00:08:39.974Z,50.875450
2023-05-18T00:09:39.947Z,50.875343
2023-05-18T00:10:39.947Z,50.875351
2023-05-18T00:11:39.919Z,50.875340
2023-05-18T00:12:39.936Z,50.875286
2023-05-18T00:13:39.916Z,50.875393
2023-05-18T00:14:39.925Z,50.875694
2023-05-18T00:15:39.904Z,50.875576
2023-05-18T00:16:39.968Z,50.875473
2023-05-18T00:17:39.899Z,50.875408
2023-05-18T00:18:39.949Z,50.875511
2023-05-18T00:19:39.842Z,50.875397
2023-05-18T00:20:39.829Z,50.875553
2023-05-18T00:21:39.867Z,50.875328
2023-05-18T00:22:39.860Z,50.875252
2023-05-18T00:23:39.807Z,50.875446
2023-05-18T00:24:39.817Z,50.875484
2023-05-18T00:25:39.801Z,50.875290
2023-05-18T00:26:39.803Z,50.875343
2023-05-18T00:27:39.768Z,50.875458
2023-05-18T00:28:39.769Z,50.875538
2023-05-18T00:29:39.754Z,50.875546
2023-05-18T00:30:39.747Z,50.875751
2023-05-18T00:31:39.753Z,50.875549
2023-05-18T00:32:39.771Z,50.875702
2023-05-18T00:33:39.719Z,50.875584
2023-05-18T00:34:39.708Z,50.875343
2023-05-18T00:35:39.703Z,50.875202
2023-05-18T00:36:39.672Z,50.875214
2023-05-18T00:37:40.672Z,50.875381
2023-05-18T00:38:39.654Z,50.875359
2023-05-18T00:39:39.722Z,50.875320
2023-05-18T00:40:39.640Z,50.875404
2023-05-18T00:41:39.651Z,50.875572
2023-05-18T00:42:39.617Z,50.875534
2023-05-18T00:43:39.630Z,50.875530
2023-05-18T00:44:39.629Z,50.875408
2023-05-18T00:45:39.615Z,50.875492
2023-05-18T00:46:39.589Z,50.875351
2023-05-18T00:47:39.603Z,50.875282
2023-05-18T00:48:39.556Z,50.875046
2023-05-18T00:49:39.541Z,50.875919
2023-05-18T00:50:39.525Z,50.875576
2023-05-18T00:51:39.531Z,50.875362
2023-05-18T00:52:39.521Z,50.875374
2023-05-18T00:53:39.748Z,50.875168
2023-05-18T00:54:39.494Z,50.875240
2023-05-18T00:55:39.496Z,50.875309
2023-05-18T00:56:39.565Z,50.875290
2023-05-18T00:57:39.502Z,50.875221
2023-05-18T00:58:39.480Z,50.875252
2023-05-18T00:59:39.477Z,50.875248
2023-05-18T01:00:39.457Z,50.875309
2023-05-18T01:01:39.503Z,50.875370
2023-05-18T01:02:40.513Z,50.875031
2023-05-18T01:03:39.534Z,50.875324
2023-05-18T01:04:39.394Z,50.875313
2023-05-18T01:05:39.417Z,50.875359
2023-05-18T01:06:39.383Z,50.875191
2023-05-18T01:07:39.375Z,50.875019
2023-05-18T01:08:39.399Z,50.874947
2023-05-18T01:09:39.336Z,50.875278
2023-05-18T01:10:39.352Z,50.875107
2023-05-18T01:11:39.391Z,50.875244
2023-05-18T01:12:39.345Z,50.875191
2023-05-18T01:13:39.318Z,50.875378
2023-05-18T01:14:39.309Z,50.875187
2023-05-18T01:15:39.331Z,50.875439
2023-05-18T01:16:39.278Z,50.875607
2023-05-18T01:17:39.304Z,50.875496
2023-05-18T01:18:39.287Z,50.875435
2023-05-18T01:19:39.265Z,50.875687
2023-05-18T01:20:39.278Z,50.875488
2023-05-18T01:21:39.256Z,50.876011
2023-05-18T01:22:39.228Z,50.876846
2023-05-18T01:23:39.217Z,50.876846
2023-05-18T01:24:39.201Z,50.876846
2023-05-18T01:25:39.189Z,50.876846
2023-05-18T01:26:39.178Z,50.875046
2023-05-18T01:27:39.148Z,50.875259
2023-05-18T01:28:39.145Z,50.875336
2023-05-18T01:29:39.178Z,50.875378
2023-05-18T01:30:39.165Z,50.874901
2023-05-18T01:31:39.130Z,50.875023
2023-05-18T01:32:39.151Z,50.875168
2023-05-18T01:33:39.111Z,50.875370
2023-05-18T01:34:39.101Z,50.875301
2023-05-18T01:35:39.088Z,50.875111
2023-05-18T01:36:39.092Z,50.875359
2023-05-18T01:37:39.074Z,50.875267
2023-05-18T01:38:39.393Z,50.875374
2023-05-18T01:39:39.047Z,50.875313
2023-05-18T01:40:39.040Z,50.875332
2023-05-18T01:41:39.033Z,50.875469
2023-05-18T01:42:39.018Z,50.875626
2023-05-18T01:43:39.045Z,50.875427
2023-05-18T01:44:39.016Z,50.874722
2023-05-18T01:45:38.990Z,50.874886
2023-05-18T01:46:39.017Z,50.874886
2023-05-18T01:47:39.029Z,50.875561
2023-05-18T01:48:38.975Z,50.875362
2023-05-18T01:49:38.966Z,50.875298
2023-05-18T01:50:38.973Z,50.875298
2023-05-18T01:51:38.981Z,50.875229
2023-05-18T01:52:38.954Z,50.875313
2023-05-18T01:53:38.931Z,50.875439
2023-05-18T01:54:38.930Z,50.875317
2023-05-18T01:55:38.917Z,50.875153
2023-05-18T01:56:38.909Z,50.875225
2023-05-18T01:57:38.921Z,50.875275
2023-05-18T01:58:38.886Z,50.875328
2023-05-18T01:59:38.894Z,50.875221
2023-05-18T02:00:38.855Z,50.875301
2023-05-18T02:01:38.880Z,50.875389
2023-05-18T02:02:38.993Z,50.875217
2023-05-18T02:03:38.974Z,50.875351
2023-05-18T02:04:38.830Z,50.875374
2023-05-18T02:05:38.819Z,50.875320
2023-05-18T02:06:38.827Z,50.875362
2023-05-18T02:07:38.817Z,50.875362
2023-05-18T02:08:38.791Z,50.875492
2023-05-18T02:09:38.771Z,50.871723
2023-05-18T02:10:38.760Z,50.865398
2023-05-18T02:11:38.756Z,50.861267
2023-05-18T02:12:38.733Z,50.861317
2023-05-18T02:13:38.717Z,50.877827
2023-05-18T02:14:38.755Z,50.877331
2023-05-18T02:15:38.731Z,50.875881
2023-05-18T02:16:38.770Z,50.874165
2023-05-18T02:17:38.720Z,50.874165
2023-05-18T02:18:39.719Z,50.874165
2023-05-18T02:19:38.702Z,50.874165
2023-05-18T02:20:38.638Z,50.874165
2023-05-18T02:21:38.645Z,50.874165
2023-05-18T02:22:38.635Z,50.874165
2023-05-18T02:23:38.710Z,50.874165
2023-05-18T02:24:38.607Z,50.874165
2023-05-18T02:25:38.610Z,50.874165
2023-05-18T02:26:38.586Z,50.874165
2023-05-18T02:27:38.585Z,50.874165
2023-05-18T02:28:38.580Z,50.874165
2023-05-18T02:29:38.557Z,50.874165
2023-05-18T02:30:38.570Z,50.874165
2023-05-18T02:31:38.588Z,50.874165
2023-05-18T02:32:38.678Z,50.874165
2023-05-18T02:33:38.538Z,50.874165
2023-05-18T02:34:38.501Z,50.874165
2023-05-18T02:35:38.496Z,50.874165
2023-05-18T02:36:38.502Z,50.874165
2023-05-18T02:37:38.468Z,50.874165
2023-05-18T02:38:38.504Z,50.874165
2023-05-18T02:39:38.501Z,50.874165
2023-05-18T02:40:38.480Z,50.874165
2023-05-18T02:41:38.454Z,50.874165
2023-05-18T02:42:38.423Z,50.874165
2023-05-18T02:43:38.406Z,50.874165
2023-05-18T02:44:38.430Z,50.874165
2023-05-18T02:45:38.412Z,50.874165
2023-05-18T02:46:38.411Z,50.874165
2023-05-18T02:47:38.405Z,50.874165
2023-05-18T02:48:38.368Z,50.874165
2023-05-18T02:49:38.403Z,50.874165
2023-05-18T02:50:38.371Z,50.874165
2023-05-18T02:51:38.351Z,50.874165
2023-05-18T02:52:38.362Z,50.874165
2023-05-18T02:53:38.371Z,50.874165
2023-05-18T02:54:38.366Z,50.874165
2023-05-18T02:55:38.373Z,50.874165
2023-05-18T02:56:38.312Z,50.874165
2023-05-18T02:57:38.289Z,50.874165
2023-05-18T02:58:38.294Z,50.874165
2023-05-18T02:59:38.302Z,50.874165
2023-05-18T03:00:38.290Z,50.874165
2023-05-18T03:01:38.278Z,50.874165
2023-05-18T03:02:38.396Z,50.874165
2023-05-18T03:03:38.292Z,50.874165
2023-05-18T03:04:38.243Z,50.874165
2023-05-18T03:05:38.208Z,50.874165
2023-05-18T03:06:38.223Z,50.874165
2023-05-18T03:07:38.210Z,50.874165
2023-05-18T03:08:39.206Z,50.874165
2023-05-18T03:09:38.186Z,50.874165
2023-05-18T03:10:38.184Z,50.874165
2023-05-18T03:11:38.164Z,50.874165
2023-05-18T03:12:38.184Z,50.874165
2023-05-18T03:13:38.134Z,50.874165
2023-05-18T03:14:39.158Z,50.874165
2023-05-18T03:15:38.163Z,50.874165
2023-05-18T03:16:38.257Z,50.874165
2023-05-18T03:17:38.210Z,50.874165
2023-05-18T03:18:38.148Z,50.874165
2023-05-18T03:19:38.112Z,50.874165
2023-05-18T03:20:38.108Z,50.874165
2023-05-18T03:21:38.080Z,50.874165
2023-05-18T03:22:38.076Z,50.874165
2023-05-18T03:23:38.073Z,50.874165
2023-05-18T03:24:38.057Z,50.874165
2023-05-18T03:25:38.048Z,50.874165
2023-05-18T03:26:38.037Z,50.874165
2023-05-18T03:27:38.049Z,50.875359
2023-05-18T03:28:37.995Z,50.875263
2023-05-18T03:29:38.012Z,50.875256
2023-05-18T03:30:37.989Z,50.875267
2023-05-18T03:31:38.057Z,50.875290
2023-05-18T03:32:38.074Z,50.875305
2023-05-18T03:33:37.941Z,50.875305
2023-05-18T03:34:37.942Z,50.875305
2023-05-18T03:35:38.003Z,50.875305
2023-05-18T03:36:37.925Z,50.875305
2023-05-18T03:37:37.966Z,50.875305
2023-05-18T03:38:37.898Z,50.875305
2023-05-18T03:39:37.912Z,50.875305
2023-05-18T03:40:37.895Z,50.875305
2023-05-18T03:41:37.897Z,50.875305
2023-05-18T03:42:37.884Z,50.875305
2023-05-18T03:43:37.881Z,50.875305
2023-05-18T03:44:37.846Z,50.875305
2023-05-18T03:45:37.883Z,50.875305
2023-05-18T03:46:37.847Z,50.875305
2023-05-18T03:47:37.848Z,50.875305
2023-05-18T03:48:37.829Z,50.875305
2023-05-18T03:49:37.813Z,50.875305
2023-05-18T03:50:37.848Z,50.875305
2023-05-18T03:51:37.779Z,50.875305
2023-05-18T03:52:37.779Z,50.875305
2023-05-18T03:53:37.775Z,50.875305
2023-05-18T03:54:37.768Z,50.875305
2023-05-18T03:55:37.765Z,50.875305
2023-05-18T03:56:37.720Z,50.875305
2023-05-18T03:57:37.740Z,50.875305
2023-05-18T03:58:38.698Z,50.875305
2023-05-18T03:59:37.727Z,50.875305
2023-05-18T04:00:37.703Z,50.875305
2023-05-18T04:01:37.727Z,50.875305
2023-05-18T04:02:37.796Z,50.875305
2023-05-18T04:03:37.757Z,50.875305
2023-05-18T04:04:37.643Z,50.875305
2023-05-18T04:05:37.622Z,50.875305
2023-05-18T04:06:37.668Z,50.875305
2023-05-18T04:07:37.628Z,50.875305
2023-05-18T04:08:37.682Z,50.875305
2023-05-18T04:09:37.623Z,50.875305
2023-05-18T04:10:37.576Z,50.875305
2023-05-18T04:11:37.574Z,50.875305
2023-05-18T04:12:37.575Z,50.875305
2023-05-18T04:13:37.573Z,50.875305
2023-05-18T04:14:37.565Z,50.875305
2023-05-18T04:15:37.557Z,50.875305
2023-05-18T04:16:37.558Z,50.875305
2023-05-18T04:17:37.549Z,50.875305
2023-05-18T04:18:37.558Z,50.875305
2023-05-18T04:19:37.542Z,50.875305
2023-05-18T04:20:37.486Z,50.875305
2023-05-18T04:21:37.512Z,50.875305
2023-05-18T04:22:37.467Z,50.875305
2023-05-18T04:23:37.477Z,50.875305
2023-05-18T04:24:37.446Z,50.875305
2023-05-18T04:25:37.464Z,50.875305
2023-05-18T04:26:37.419Z,50.875305
2023-05-18T04:27:37.433Z,50.875305
2023-05-18T04:28:37.572Z,50.875305
2023-05-18T04:29:37.416Z,50.875305
2023-05-18T04:30:37.410Z,50.875305
2023-05-18T04:31:37.467Z,50.875305
2023-05-18T04:32:37.399Z,50.875305
2023-05-18T04:33:37.380Z,50.875305
2023-05-18T04:34:37.363Z,50.875305
2023-05-18T04:35:37.362Z,50.875305
2023-05-18T04:36:37.353Z,50.875305
2023-05-18T04:37:37.343Z,50.875305
2023-05-18T04:38:37.334Z,50.875305
2023-05-18T04:39:37.319Z,50.875305
2023-05-18T04:40:37.321Z,50.875305
2023-05-18T04:41:37.312Z,50.875305
2023-05-18T04:42:37.333Z,50.875305
2023-05-18T04:43:37.267Z,50.875305
2023-05-18T04:44:37.276Z,50.875305
2023-05-18T04:45:37.327Z,50.875305
2023-05-18T04:46:37.259Z,50.875305
2023-05-18T04:47:37.277Z,50.875305
2023-05-18T04:48:37.206Z,50.875305
2023-05-18T04:49:37.212Z,50.875305
2023-05-18T04:50:37.245Z,50.875305
2023-05-18T04:51:37.190Z,50.875305
2023-05-18T04:52:37.191Z,50.875305
2023-05-18T04:53:37.169Z,50.875305
2023-05-18T04:54:37.158Z,50.875305
2023-05-18T04:55:37.153Z,50.875305
2023-05-18T04:56:37.174Z,50.875305
2023-05-18T04:57:37.140Z,50.875305
2023-05-18T04:58:37.134Z,50.875305
2023-05-18T04:59:37.106Z,50.875305
2023-05-18T05:00:37.113Z,50.875305
2023-05-18T05:01:37.111Z,50.875305
2023-05-18T05:02:37.126Z,50.875305
2023-05-18T05:03:37.148Z,50.875305
2023-05-18T05:04:37.076Z,50.875305
2023-05-18T05:05:37.030Z,50.875305
2023-05-18T05:06:37.051Z,50.875305
2023-05-18T05:07:37.015Z,50.875305
2023-05-18T05:08:37.007Z,50.875305
2023-05-18T05:09:36.999Z,50.875305
2023-05-18T05:10:36.999Z,50.875305
2023-05-18T05:11:36.996Z,50.875305
2023-05-18T05:12:36.990Z,50.875305
2023-05-18T05:13:36.970Z,50.875305
2023-05-18T05:14:36.951Z,50.875305
2023-05-18T05:15:36.961Z,50.875305
2023-05-18T05:16:36.951Z,50.875305
2023-05-18T05:17:37.006Z,50.875305
2023-05-18T05:18:36.941Z,50.875305
2023-05-18T05:19:36.914Z,50.875305
2023-05-18T05:20:36.914Z,50.875305
2023-05-18T05:21:36.897Z,50.875305
2023-05-18T05:22:36.969Z,50.875305
2023-05-18T05:23:36.850Z,50.875305
2023-05-18T05:24:36.839Z,50.875305
2023-05-18T05:25:36.847Z,50.875305
2023-05-18T05:26:36.827Z,50.875305
2023-05-18T05:27:36.808Z,50.875305
2023-05-18T05:28:36.785Z,50.875305
2023-05-18T05:29:36.783Z,50.875305
2023-05-18T05:30:36.799Z,50.875305
2023-05-18T05:31:36.814Z,50.875305
2023-05-18T05:32:36.962Z,50.875305
2023-05-18T05:33:36.751Z,50.875305
2023-05-18T05:34:36.788Z,50.875305
2023-05-18T05:35:37.044Z,50.875305
2023-05-18T05:36:36.749Z,50.875305
2023-05-18T05:37:36.732Z,50.875305
2023-05-18T05:38:36.717Z,50.875305
2023-05-18T05:39:36.714Z,50.875305
2023-05-18T05:40:36.672Z,50.875305
2023-05-18T05:41:36.691Z,50.875305
2023-05-18T05:42:36.704Z,50.875305
2023-05-18T05:43:36.669Z,50.875305
2023-05-18T05:44:36.673Z,50.875305
2023-05-18T05:45:36.656Z,50.875305
2023-05-18T05:46:36.742Z,50.875305
2023-05-18T05:47:36.667Z,50.875305
2023-05-18T05:48:36.610Z,50.875305
2023-05-18T05:49:36.636Z,50.875305
2023-05-18T05:50:36.586Z,50.875305
2023-05-18T05:51:36.560Z,50.875305
2023-05-18T05:52:36.592Z,50.875305
2023-05-18T05:53:36.572Z,50.875305
2023-05-18T05:54:36.545Z,50.875305
2023-05-18T05:55:36.528Z,50.875305
2023-05-18T05:56:36.517Z,50.875305
2023-05-18T05:57:36.514Z,50.875305
2023-05-18T05:58:36.506Z,50.875305
2023-05-18T05:59:36.503Z,50.875305
2023-05-18T06:00:36.479Z,50.875305
2023-05-18T06:01:36.473Z,50.875305
2023-05-18T06:02:36.729Z,50.875305
2023-05-18T06:03:36.522Z,50.875305
2023-05-18T06:04:36.580Z,50.875305
2023-05-18T06:05:36.426Z,50.875305
2023-05-18T06:06:36.421Z,50.875305
2023-05-18T06:07:36.412Z,50.875305
2023-05-18T06:08:36.400Z,50.875305
2023-05-18T06:09:36.385Z,50.875305
2023-05-18T06:10:36.371Z,50.875305
2023-05-18T06:11:36.363Z,50.875305
2023-05-18T06:12:36.365Z,50.875305
2023-05-18T06:13:36.360Z,50.875305
2023-05-18T06:14:36.335Z,50.875305
2023-05-18T06:15:36.322Z,50.875305
2023-05-18T06:16:36.360Z,50.875305
2023-05-18T06:17:36.326Z,50.875305
2023-05-18T06:18:36.390Z,50.875305
2023-05-18T06:19:36.279Z,50.875305
2023-05-18T06:20:36.287Z,50.875305
2023-05-18T06:21:36.270Z,50.875305
2023-05-18T06:22:36.263Z,50.875305
2023-05-18T06:23:36.242Z,50.875305
2023-05-18T06:24:36.242Z,50.875305
2023-05-18T06:25:36.232Z,50.875305
2023-05-18T06:26:36.217Z,50.875305
2023-05-18T06:27:36.209Z,50.875305
2023-05-18T06:28:36.183Z,50.875305
2023-05-18T06:29:36.183Z,50.875305
2023-05-18T06:30:36.183Z,50.875305
2023-05-18T06:31:36.180Z,50.875305
2023-05-18T06:32:36.158Z,50.875305
2023-05-18T06:33:37.174Z,50.875305
2023-05-18T06:34:36.127Z,50.875305
2023-05-18T06:35:36.147Z,50.875305
2023-05-18T06:36:36.124Z,50.875305
2023-05-18T06:37:36.100Z,50.875305
2023-05-18T06:38:36.134Z,50.875305
2023-05-18T06:39:36.072Z,50.875305
2023-05-18T06:40:36.094Z,50.875305
2023-05-18T06:41:36.064Z,50.875305
2023-05-18T06:42:36.044Z,50.875305
2023-05-18T06:43:36.042Z,50.875305
2023-05-18T06:44:36.044Z,50.875305
2023-05-18T06:45:37.310Z,50.875305
2023-05-18T06:46:37.093Z,50.875305
2023-05-18T06:47:36.111Z,50.875305
2023-05-18T06:48:35.993Z,50.875305
2023-05-18T06:49:35.985Z,50.875305
2023-05-18T06:50:35.979Z,50.875305
2023-05-18T06:51:35.956Z,50.875305
2023-05-18T06:52:35.953Z,50.875305
2023-05-18T06:53:35.933Z,50.875305
2023-05-18T06:54:36.603Z,50.875305
2023-05-18T06:55:36.749Z,50.875305
2023-05-18T06:56:35.900Z,50.875305
2023-05-18T06:57:35.887Z,50.875305
2023-05-18T06:58:35.960Z,50.875305
2023-05-18T06:59:36.331Z,50.875305
2023-05-18T07:00:36.444Z,50.875305
2023-05-18T07:01:35.917Z,50.875305
2023-05-18T07:02:35.918Z,50.875305
2023-05-18T07:03:35.892Z,50.875305
2023-05-18T07:04:35.817Z,50.875305
2023-05-18T07:05:39.209Z,50.875305
2023-05-18T07:06:36.781Z,50.875305
2023-05-18T07:07:35.792Z,50.875305
2023-05-18T07:08:35.823Z,50.875305
2023-05-18T07:09:35.802Z,50.875305
2023-05-18T07:10:35.761Z,50.875305
2023-05-18T07:11:35.742Z,50.875305
2023-05-18T07:12:35.721Z,50.875305
2023-05-18T07:13:35.728Z,50.875305
2023-05-18T07:14:35.703Z,50.875305
2023-05-18T07:15:35.785Z,50.875305
2023-05-18T07:16:35.820Z,50.875305
2023-05-18T07:17:35.706Z,50.875305
2023-05-18T07:18:35.740Z,50.875305
2023-05-18T07:19:35.644Z,50.875305
2023-05-18T07:20:35.651Z,50.875305
2023-05-18T07:21:35.627Z,50.875305
2023-05-18T07:22:35.623Z,50.875305
2023-05-18T07:23:35.805Z,50.875305
2023-05-18T07:25:09.780Z,50.875305
2023-05-18T07:25:35.609Z,50.875305
2023-05-18T07:26:35.601Z,50.875305
2023-05-18T07:27:35.592Z,50.875305
2023-05-18T07:28:35.585Z,50.875305
2023-05-18T07:29:35.555Z,50.875305
2023-05-18T07:30:35.537Z,50.875305
2023-05-18T07:31:35.562Z,50.875305
2023-05-18T07:32:35.597Z,50.875305
2023-05-18T07:33:35.537Z,50.875305
2023-05-18T07:34:35.557Z,50.875305
2023-05-18T07:35:35.536Z,50.875305
2023-05-18T07:36:35.497Z,50.875305
2023-05-18T07:37:35.519Z,50.875305
2023-05-18T07:38:35.488Z,50.875305
2023-05-18T07:39:35.489Z,50.875305
2023-05-18T07:40:35.461Z,50.875305
2023-05-18T07:41:35.458Z,50.875305
2023-05-18T07:42:35.450Z,50.875305
2023-05-18T07:43:35.426Z,50.875305
2023-05-18T07:44:35.418Z,50.875305
2023-05-18T07:45:35.430Z,50.875305
2023-05-18T07:46:35.440Z,50.875305
2023-05-18T07:47:35.450Z,50.875305
2023-05-18T07:48:35.389Z,50.875305
2023-05-18T07:49:35.373Z,50.875305
2023-05-18T07:50:35.373Z,50.875305
2023-05-18T07:51:35.374Z,50.875305
2023-05-18T07:52:35.393Z,50.875305
2023-05-18T07:53:35.335Z,50.875305
2023-05-18T07:54:35.323Z,50.875305
2023-05-18T07:55:35.316Z,50.875305
2023-05-18T07:56:35.313Z,50.875305
2023-05-18T07:57:35.307Z,50.875305
2023-05-18T07:58:35.325Z,50.875305
2023-05-18T07:59:35.293Z,50.875305
2023-05-18T08:00:35.270Z,50.875305
2023-05-18T08:01:35.370Z,50.875305
2023-05-18T08:02:35.296Z,50.875305
2023-05-18T08:03:35.288Z,50.875305
2023-05-18T08:04:35.225Z,50.875305
2023-05-18T08:05:35.209Z,50.875305
2023-05-18T08:06:35.214Z,50.875305
2023-05-18T08:07:35.197Z,50.875305
2023-05-18T08:08:35.197Z,50.875305
2023-05-18T08:09:35.173Z,50.875305
2023-05-18T08:10:35.230Z,50.875305
2023-05-18T08:11:35.184Z,50.875305
2023-05-18T08:12:35.145Z,50.875305
2023-05-18T08:13:35.125Z,50.875305
2023-05-18T08:14:35.115Z,50.875305
2023-05-18T08:15:35.121Z,50.875305
2023-05-18T08:16:35.179Z,50.875305
2023-05-18T08:17:36.117Z,50.875305
2023-05-18T08:18:35.089Z,50.875305
2023-05-18T08:19:36.055Z,50.875305
2023-05-18T08:20:35.077Z,50.875305
2023-05-18T08:21:35.041Z,50.875305
2023-05-18T08:22:35.044Z,50.875305
2023-05-18T08:23:35.025Z,50.875305
2023-05-18T08:24:35.029Z,50.875305
2023-05-18T08:25:35.026Z,50.875305
2023-05-18T08:26:35.005Z,50.875305
2023-05-18T08:27:35.007Z,50.875305
2023-05-18T08:28:35.006Z,50.875305
2023-05-18T08:29:34.981Z,50.875305
2023-05-18T08:30:34.960Z,50.875305
2023-05-18T08:31:35.031Z,50.875305
2023-05-18T08:32:34.956Z,50.875305
2023-05-18T08:33:34.923Z,50.875305
2023-05-18T08:34:34.968Z,50.875305
2023-05-18T08:35:34.932Z,50.875305
2023-05-18T08:36:34.880Z,50.875305
2023-05-18T08:37:34.876Z,50.875305
2023-05-18T08:38:34.866Z,50.875305
2023-05-18T08:39:34.894Z,50.875305
2023-05-18T08:40:34.852Z,50.875305
2023-05-18T08:41:34.823Z,50.875305
2023-05-18T08:42:48.662Z,50.875305
2023-05-18T08:43:36.816Z,50.875305
2023-05-18T08:44:34.814Z,50.875305
2023-05-18T08:45:34.795Z,50.875305
2023-05-18T08:46:34.789Z,50.875305
2023-05-18T08:47:34.843Z,50.875305
2023-05-18T08:48:34.852Z,50.875305
2023-05-18T08:49:34.763Z,50.875305
2023-05-18T08:50:34.751Z,50.875305
2023-05-18T08:51:34.745Z,50.875305
2023-05-18T08:52:34.730Z,50.875305
2023-05-18T08:53:34.738Z,50.875305
2023-05-18T08:54:34.705Z,50.875305
2023-05-18T08:55:34.678Z,50.875305
2023-05-18T08:56:34.722Z,50.875305
2023-05-18T08:57:34.679Z,50.875305
2023-05-18T08:58:34.660Z,50.875305
2023-05-18T08:59:35.678Z,50.875305
2023-05-18T09:00:35.106Z,50.875305
2023-05-18T09:01:34.686Z,50.875305
2023-05-18T09:02:34.677Z,50.875305
2023-05-18T09:03:34.608Z,50.875305
2023-05-18T09:04:34.616Z,50.875305
2023-05-18T09:05:35.061Z,50.875305
2023-05-18T09:06:34.581Z,50.875305
2023-05-18T09:07:34.594Z,50.875305
2023-05-18T09:08:34.556Z,50.875305
2023-05-18T09:09:34.546Z,50.875305
2023-05-18T09:10:34.544Z,50.875305
2023-05-18T09:11:34.567Z,50.875305
2023-05-18T09:12:34.520Z,50.875305
2023-05-18T09:13:34.512Z,50.875305
2023-05-18T09:14:34.491Z,50.875305
2023-05-18T09:15:34.474Z,50.875305
2023-05-18T09:16:34.625Z,50.875305
2023-05-18T09:17:34.460Z,50.875305
2023-05-18T09:18:34.546Z,50.875305
2023-05-18T09:19:34.444Z,50.875305
2023-05-18T09:20:34.428Z,50.875305
2023-05-18T09:21:34.430Z,50.875305
2023-05-18T09:22:34.405Z,50.875305
2023-05-18T09:23:34.408Z,50.875305
2023-05-18T09:24:34.402Z,50.875305
2023-05-18T09:25:34.386Z,50.875305
2023-05-18T09:26:34.379Z,50.875305
2023-05-18T09:27:34.371Z,50.875305
2023-05-18T09:28:34.335Z,50.875305
2023-05-18T09:29:34.353Z,50.875305
2023-05-18T09:30:34.351Z,50.875305
2023-05-18T09:31:34.387Z,50.875305
2023-05-18T09:32:34.324Z,50.875305
2023-05-18T09:33:34.387Z,50.875305
2023-05-18T09:34:34.294Z,50.875305
2023-05-18T09:35:34.581Z,50.875305
2023-05-18T09:36:34.267Z,50.875305
2023-05-18T09:37:34.262Z,50.875305
2023-05-18T09:38:34.248Z,50.875305
2023-05-18T09:39:34.247Z,50.875305
2023-05-18T09:40:34.235Z,50.875305
2023-05-18T09:41:34.223Z,50.875305
2023-05-18T09:42:34.213Z,50.875305
2023-05-18T09:43:34.202Z,50.875305
2023-05-18T09:44:34.198Z,50.875305
2023-05-18T09:45:34.174Z,50.875305
2023-05-18T09:46:34.234Z,50.875305
2023-05-18T09:47:34.166Z,50.875305
2023-05-18T09:48:34.151Z,50.875305
2023-05-18T09:49:34.161Z,50.875305
2023-05-18T09:50:34.142Z,50.875305
2023-05-18T09:51:34.130Z,50.875305
2023-05-18T09:52:34.112Z,50.875305
2023-05-18T09:53:34.116Z,50.875305
2023-05-18T09:54:34.097Z,50.875305
2023-05-18T09:55:35.094Z,50.875305
2023-05-18T09:56:34.064Z,50.875305
2023-05-18T09:57:34.058Z,50.875305
2023-05-18T09:58:34.070Z,50.875305
2023-05-18T09:59:34.057Z,50.875305
2023-05-18T10:00:34.070Z,50.875305
2023-05-18T10:01:34.093Z,50.875305
2023-05-18T10:02:34.066Z,50.875305
2023-05-18T10:03:34.019Z,50.875305
2023-05-18T10:04:34.025Z,50.875305
2023-05-18T10:05:35.732Z,50.875305
2023-05-18T10:06:34.971Z,50.875305
2023-05-18T10:07:33.966Z,50.875305
2023-05-18T10:08:33.952Z,50.875305
2023-05-18T10:09:33.939Z,50.875305
2023-05-18T10:10:33.967Z,50.875305
2023-05-18T10:11:33.930Z,50.875305
2023-05-18T10:12:33.933Z,50.875305
2023-05-18T10:13:33.896Z,50.875305
2023-05-18T10:14:33.896Z,50.875305
2023-05-18T10:15:33.884Z,50.875305
2023-05-18T10:16:33.898Z,50.875305
2023-05-18T10:17:33.961Z,50.875305
2023-05-18T10:18:33.965Z,50.875305
2023-05-18T10:19:33.848Z,50.875305
2023-05-18T10:20:33.835Z,50.875305
2023-05-18T10:21:33.825Z,50.875305
2023-05-18T10:22:33.829Z,50.875305
2023-05-18T10:23:33.805Z,50.875305
2023-05-18T10:24:33.787Z,50.875305
2023-05-18T10:25:33.783Z,50.875305
2023-05-18T10:26:33.790Z,50.875305
2023-05-18T10:27:33.761Z,50.875305
2023-05-18T10:28:33.750Z,50.875305
2023-05-18T10:29:33.739Z,50.875305
2023-05-18T10:30:33.947Z,50.875305
2023-05-18T10:31:33.778Z,50.875305
2023-05-18T10:32:33.745Z,50.875305
2023-05-18T10:33:33.747Z,50.875305
2023-05-18T10:34:33.839Z,50.875305
2023-05-18T10:35:33.675Z,50.875305
2023-05-18T10:36:33.675Z,50.875305
2023-05-18T10:37:33.653Z,50.875305
2023-05-18T10:38:33.650Z,50.875305
2023-05-18T10:39:33.640Z,50.875305
2023-05-18T10:40:33.676Z,50.875305
2023-05-18T10:41:33.631Z,50.875305
2023-05-18T10:42:33.602Z,50.875305
2023-05-18T10:43:34.595Z,50.875305
2023-05-18T10:44:33.589Z,50.875305
2023-05-18T10:45:33.589Z,50.875305
2023-05-18T10:46:33.745Z,50.875305
2023-05-18T10:47:33.810Z,50.875305
2023-05-18T10:48:33.572Z,50.875305
2023-05-18T10:49:33.548Z,50.875305
2023-05-18T10:50:33.558Z,50.875305
2023-05-18T10:51:33.520Z,50.875305
2023-05-18T10:52:33.501Z,50.875305
2023-05-18T10:53:33.498Z,50.875305
2023-05-18T10:54:33.492Z,50.875305
2023-05-18T10:55:33.490Z,50.875305
2023-05-18T10:56:33.494Z,50.875305
2023-05-18T10:57:33.454Z,50.875305
2023-05-18T10:58:33.445Z,50.875305
2023-05-18T10:59:33.453Z,50.875305
2023-05-18T11:00:33.645Z,50.875305
2023-05-18T11:01:33.425Z,50.875305
2023-05-18T11:02:33.479Z,50.875305
2023-05-18T11:03:33.430Z,50.875305
2023-05-18T11:04:33.435Z,50.875305
2023-05-18T11:05:33.398Z,50.875305
2023-05-18T11:06:33.481Z,50.875305
2023-05-18T11:07:33.350Z,50.875305
2023-05-18T11:08:33.344Z,50.875305
2023-05-18T11:09:33.343Z,50.875305
2023-05-18T11:10:33.321Z,50.875305
2023-05-18T11:11:33.308Z,50.875305
2023-05-18T11:12:33.343Z,50.875305
2023-05-18T11:13:33.285Z,50.875305
2023-05-18T11:14:34.295Z,50.875305
2023-05-18T11:15:33.276Z,50.875305
2023-05-18T11:16:33.301Z,50.875305
2023-05-18T11:17:33.343Z,50.875305
2023-05-18T11:18:33.246Z,50.875305
2023-05-18T11:19:33.242Z,50.875305
2023-05-18T11:20:33.395Z,50.875305
2023-05-18T11:21:33.212Z,50.875305
2023-05-18T11:22:33.192Z,50.875305
2023-05-18T11:23:33.209Z,50.875305
2023-05-18T11:24:33.216Z,50.875305
2023-05-18T11:25:33.177Z,50.875305